Time;durP1;ratioP1;P1;durP2;ratioP2;P2;SDS_P1;SDS_P2;PMS_P1;PMS_P2;Temp;Humidity;BMP_temperature;BMP_pressure;BME280_temperature;BME280_humidity;BME280_pressure;Samples;Min_cycle;Max_cycle;Signal;HPM_P1;HPM_P2
2023/06/02 00:02:15;;;;;;;48.40;6.43;;;;;;;;;;5003472;28;20033;-71
2023/06/02 00:04:41;;;;;;;46.25;6.93;;;;;;;;;;5010790;28;20054;-71
2023/06/02 00:07:07;;;;;;;46.30;6.55;;;;;;;;;;5010552;28;20030;-72
2023/06/02 00:09:37;;;;;;;38.33;6.15;;;;;;;;;;5010680;28;20048;-73
2023/06/02 00:12:03;;;;;;;45.63;6.50;;;;;;;;;;5010461;28;20018;-72
2023/06/02 00:14:30;;;;;;;34.15;6.07;;;;;;;;;;5010470;28;20108;-72
2023/06/02 00:17:00;;;;;;;45.85;6.82;;;;;;;;;;5011063;28;20033;-73
2023/06/02 00:19:30;;;;;;;38.03;6.43;;;;;;;;;;5010144;28;20030;-73
2023/06/02 00:21:57;;;;;;;45.90;7.78;;;;;;;;;;5010345;28;20030;-72
2023/06/02 00:24:23;;;;;;;45.42;6.80;;;;;;;;;;5010962;28;20097;-71
2023/06/02 00:26:49;;;;;;;51.42;7.18;;;;;;;;;;5010713;28;20082;-72
2023/06/02 00:29:15;;;;;;;49.13;7.43;;;;;;;;;;5010676;28;20452;-72
2023/06/02 00:31:41;;;;;;;48.75;6.95;;;;;;;;;;5010012;28;20026;-72
2023/06/02 00:34:07;;;;;;;45.45;6.38;;;;;;;;;;5010570;28;20538;-72
2023/06/02 00:36:33;;;;;;;42.53;6.10;;;;;;;;;;5010460;28;20048;-72
2023/06/02 00:38:59;;;;;;;53.65;7.53;;;;;;;;;;5010573;28;20539;-71
2023/06/02 00:41:25;;;;;;;48.72;6.40;;;;;;;;;;5010721;28;20054;-71
2023/06/02 00:43:52;;;;;;;50.13;6.63;;;;;;;;;;5010384;28;20021;-72
2023/06/02 00:46:18;;;;;;;48.03;7.57;;;;;;;;;;5010052;28;20037;-72
2023/06/02 00:48:45;;;;;;;46.20;7.47;;;;;;;;;;5010644;28;20018;-72
2023/06/02 00:51:11;;;;;;;49.83;6.40;;;;;;;;;;5010479;28;20018;-72
2023/06/02 00:53:38;;;;;;;42.70;6.45;;;;;;;;;;5009970;28;20056;-72
2023/06/02 00:56:04;;;;;;;46.30;7.00;;;;;;;;;;5010467;28;20045;-73
2023/06/02 00:58:30;;;;;;;45.92;6.90;;;;;;;;;;5010080;28;20052;-73
2023/06/02 01:00:56;;;;;;;43.45;6.97;;;;;;;;;;5010465;28;20018;-72
2023/06/02 01:03:24;;;;;;;42.40;6.45;;;;;;;;;;5007723;28;20498;-72
2023/06/02 01:05:55;;;;;;;41.25;6.22;;;;;;;;;;5010482;28;20472;-72
2023/06/02 01:08:21;;;;;;;59.90;7.30;;;;;;;;;;5010372;28;20021;-72
2023/06/02 01:10:47;;;;;;;44.85;7.03;;;;;;;;;;5010025;28;20030;-71
2023/06/02 01:13:13;;;;;;;41.10;6.32;;;;;;;;;;5009897;28;20026;-71
2023/06/02 01:15:39;;;;;;;43.03;6.38;;;;;;;;;;5014200;28;20101;-71
2023/06/02 01:18:08;;;;;;;45.63;7.63;;;;;;;;;;5014096;28;20495;-72
2023/06/02 01:20:36;;;;;;;39.58;6.88;;;;;;;;;;5014023;28;20029;-72
2023/06/02 01:23:08;;;;;;;52.08;7.10;;;;;;;;;;5013364;28;20104;-72
2023/06/02 01:25:36;;;;;;;46.30;7.60;;;;;;;;;;5013322;28;20084;-72
2023/06/02 01:28:02;;;;;;;43.85;6.95;;;;;;;;;;5013878;28;20022;-72
2023/06/02 01:30:29;;;;;;;44.88;6.68;;;;;;;;;;5013883;28;20411;-72
2023/06/02 01:33:04;;;;;;;40.92;7.00;;;;;;;;;;5013188;28;20450;-72
2023/06/02 01:35:31;;;;;;;41.83;6.63;;;;;;;;;;5013683;28;20032;-72
2023/06/02 01:37:59;;;;;;;54.88;8.05;;;;;;;;;;5014298;28;20502;-72
2023/06/02 01:40:26;;;;;;;50.78;8.23;;;;;;;;;;5013211;28;20034;-72
2023/06/02 01:42:53;;;;;;;59.78;8.48;;;;;;;;;;5013094;28;20026;-71
2023/06/02 01:45:20;;;;;;;49.35;7.28;;;;;;;;;;5014897;28;20030;-72
2023/06/02 01:47:46;;;;;;;41.40;7.10;;;;;;;;;;5013512;28;20018;-71
2023/06/02 01:50:12;;;;;;;55.50;7.75;;;;;;;;;;5013890;28;20103;-71
2023/06/02 01:52:38;;;;;;;41.33;7.60;;;;;;;;;;5014169;28;20088;-73
2023/06/02 01:55:05;;;;;;;44.53;6.22;;;;;;;;;;5014546;28;20060;-72
2023/06/02 01:57:32;;;;;;;55.22;7.07;;;;;;;;;;5013305;28;20018;-72
2023/06/02 01:59:58;;;;;;;53.22;7.05;;;;;;;;;;5011909;28;20502;-72
2023/06/02 02:02:24;;;;;;;46.85;7.13;;;;;;;;;;5012690;28;20034;-71
2023/06/02 02:04:51;;;;;;;49.80;9.13;;;;;;;;;;5012800;28;20029;-72
2023/06/02 02:07:19;;;;;;;44.85;7.68;;;;;;;;;;5013543;28;20058;-71
2023/06/02 02:09:46;;;;;;;43.05;6.93;;;;;;;;;;5013379;28;20026;-71
2023/06/02 02:12:12;;;;;;;47.80;8.15;;;;;;;;;;5012783;28;20018;-71
2023/06/02 02:14:38;;;;;;;55.55;8.02;;;;;;;;;;5013015;28;20021;-71
2023/06/02 02:17:04;;;;;;;49.67;7.18;;;;;;;;;;5012469;28;20484;-72
2023/06/02 02:19:31;;;;;;;56.28;9.05;;;;;;;;;;5013567;28;20076;-75
2023/06/02 02:22:00;;;;;;;42.60;7.53;;;;;;;;;;5008768;28;20479;-71
2023/06/02 02:24:26;;;;;;;44.63;6.82;;;;;;;;;;5013228;28;20030;-71
2023/06/02 02:26:52;;;;;;;52.10;8.23;;;;;;;;;;5018384;28;20614;-71
2023/06/02 02:29:18;;;;;;;55.97;7.57;;;;;;;;;;5032475;28;20104;-72
2023/06/02 02:31:44;;;;;;;53.78;9.60;;;;;;;;;;5032046;28;20030;-72
2023/06/02 02:34:10;;;;;;;45.75;8.05;;;;;;;;;;5032506;28;20021;-73
2023/06/02 02:36:36;;;;;;;44.03;7.40;;;;;;;;;;5031902;28;20053;-71
2023/06/02 02:39:03;;;;;;;50.67;7.65;;;;;;;;;;5032506;28;20056;-71
2023/06/02 02:41:29;;;;;;;39.38;7.50;;;;;;;;;;5031989;28;20085;-71
2023/06/02 02:43:55;;;;;;;54.67;8.40;;;;;;;;;;5031677;28;20104;-72
2023/06/02 02:46:21;;;;;;;48.60;9.10;;;;;;;;;;5031964;28;20021;-71
2023/06/02 02:48:47;;;;;;;48.95;8.27;;;;;;;;;;5031642;28;20026;-72
2023/06/02 02:51:13;;;;;;;64.60;11.90;;;;;;;;;;5032129;28;20070;-73
2023/06/02 02:53:40;;;;;;;52.00;11.48;;;;;;;;;;5031942;28;20017;-72
2023/06/02 02:56:07;;;;;;;45.05;6.95;;;;;;;;;;5031331;28;20056;-72
2023/06/02 02:58:36;;;;;;;48.90;8.65;;;;;;;;;;5032593;28;20506;-72
2023/06/02 03:01:04;;;;;;;45.60;7.38;;;;;;;;;;5032057;28;20089;-72
2023/06/02 03:03:32;;;;;;;43.30;7.10;;;;;;;;;;5031493;28;20051;-73
2023/06/02 03:06:01;;;;;;;50.00;8.07;;;;;;;;;;5033084;28;20021;-71
2023/06/02 03:08:27;;;;;;;42.63;7.75;;;;;;;;;;5032467;28;20505;-72
2023/06/02 03:10:54;;;;;;;44.97;7.22;;;;;;;;;;5032402;28;20057;-72
2023/06/02 03:13:20;;;;;;;52.70;8.10;;;;;;;;;;5032475;28;20075;-72
2023/06/02 03:15:46;;;;;;;58.05;7.82;;;;;;;;;;5033590;28;20033;-72
2023/06/02 03:18:12;;;;;;;51.42;7.82;;;;;;;;;;5033877;28;20030;-73
2023/06/02 03:20:38;;;;;;;42.42;7.78;;;;;;;;;;5035776;28;20017;-72
2023/06/02 03:23:05;;;;;;;46.38;7.45;;;;;;;;;;5031700;28;20545;-72
2023/06/02 03:25:31;;;;;;;42.67;7.25;;;;;;;;;;5030589;28;20336;-72
2023/06/02 03:27:57;;;;;;;45.63;7.97;;;;;;;;;;5031475;28;20096;-71
2023/06/02 03:30:23;;;;;;;41.60;7.80;;;;;;;;;;5032576;28;20029;-72
2023/06/02 03:32:50;;;;;;;49.70;8.73;;;;;;;;;;5031413;28;20018;-72
2023/06/02 03:35:16;;;;;;;44.50;7.55;;;;;;;;;;5032432;28;20092;-72
2023/06/02 03:37:42;;;;;;;42.78;7.60;;;;;;;;;;5032884;28;20025;-72
2023/06/02 03:40:09;;;;;;;46.72;7.30;;;;;;;;;;5033031;28;20036;-72
2023/06/02 03:42:35;;;;;;;39.83;6.40;;;;;;;;;;5032403;28;20022;-71
2023/06/02 03:45:01;;;;;;;41.65;7.55;;;;;;;;;;5033337;28;20025;-73
2023/06/02 03:47:27;;;;;;;39.95;7.40;;;;;;;;;;5032624;28;20061;-70
2023/06/02 03:49:53;;;;;;;38.50;7.55;;;;;;;;;;5032491;28;20056;-71
2023/06/02 03:52:19;;;;;;;44.15;7.55;;;;;;;;;;5032109;28;20040;-70
2023/06/02 03:54:45;;;;;;;50.03;8.63;;;;;;;;;;5032294;28;20032;-71
2023/06/02 03:57:11;;;;;;;46.70;7.38;;;;;;;;;;5032095;28;20021;-71
2023/06/02 03:59:37;;;;;;;46.33;7.97;;;;;;;;;;5031689;28;20037;-70
2023/06/02 04:02:04;;;;;;;48.40;7.35;;;;;;;;;;5025764;28;20038;-71
2023/06/02 04:04:31;;;;;;;52.28;8.07;;;;;;;;;;5011707;28;20041;-73
2023/06/02 04:06:57;;;;;;;33.42;6.90;;;;;;;;;;5011825;28;20076;-71
2023/06/02 04:09:24;;;;;;;46.88;7.80;;;;;;;;;;5013043;28;20380;-74
2023/06/02 04:11:50;;;;;;;39.50;8.50;;;;;;;;;;5011121;28;20022;-72
2023/06/02 04:14:15;;;;;;;48.88;8.43;;;;;;;;;;5007418;28;20531;-71
2023/06/02 04:16:41;;;;;;;44.47;7.82;;;;;;;;;;5012012;28;20025;-72
2023/06/02 04:19:08;;;;;;;37.17;6.43;;;;;;;;;;5011316;28;20464;-72
2023/06/02 04:21:33;;;;;;;40.95;7.70;;;;;;;;;;5012062;28;20554;-71
2023/06/02 04:23:59;;;;;;;48.42;7.20;;;;;;;;;;5011610;28;20463;-72
2023/06/02 04:26:25;;;;;;;36.53;7.15;;;;;;;;;;5012842;28;20056;-71
2023/06/02 04:28:51;;;;;;;47.05;9.05;;;;;;;;;;5014325;28;20030;-71
2023/06/02 04:31:26;;;;;;;40.70;8.00;;;;;;;;;;5017656;28;20617;-73
2023/06/02 04:33:53;;;;;;;36.40;6.38;;;;;;;;;;5015364;28;20022;-73
2023/06/02 04:36:19;;;;;;;40.92;6.70;;;;;;;;;;5012174;28;20494;-72
2023/06/02 04:38:45;;;;;;;41.83;6.85;;;;;;;;;;5012013;28;20026;-72
2023/06/02 04:41:11;;;;;;;36.72;6.45;;;;;;;;;;5012150;28;20049;-72
2023/06/02 04:43:39;;;;;;;43.67;6.90;;;;;;;;;;5009002;28;20030;-73
2023/06/02 04:46:06;;;;;;;29.17;5.65;;;;;;;;;;5011348;28;20383;-74
2023/06/02 04:48:32;;;;;;;32.58;6.28;;;;;;;;;;5012391;28;20018;-73
2023/06/02 04:50:58;;;;;;;31.42;6.15;;;;;;;;;;5013961;28;20122;-74
2023/06/02 04:53:24;;;;;;;31.27;6.20;;;;;;;;;;5015006;28;20026;-72
2023/06/02 04:55:50;;;;;;;31.80;6.28;;;;;;;;;;5016565;28;20435;-72
2023/06/02 04:58:16;;;;;;;27.83;6.05;;;;;;;;;;5016081;28;20026;-72
2023/06/02 05:00:42;;;;;;;32.33;5.47;;;;;;;;;;5016322;28;20368;-72
2023/06/02 05:03:08;;;;;;;36.15;6.25;;;;;;;;;;5016279;28;20070;-72
2023/06/02 05:05:34;;;;;;;32.28;6.35;;;;;;;;;;5019667;28;20030;-72
2023/06/02 05:08:00;;;;;;;24.92;5.60;;;;;;;;;;5017497;28;20022;-76
2023/06/02 05:10:26;;;;;;;37.28;8.02;;;;;;;;;;5016529;28;20108;-74
2023/06/02 05:12:53;;;;;;;35.15;6.60;;;;;;;;;;5015697;28;20517;-73
2023/06/02 05:15:19;;;;;;;28.20;5.35;;;;;;;;;;5016034;28;20475;-71
2023/06/02 05:17:45;;;;;;;24.55;5.57;;;;;;;;;;5016114;28;20387;-72
2023/06/02 05:20:11;;;;;;;22.42;6.13;;;;;;;;;;5012782;28;20032;-72
2023/06/02 05:22:38;;;;;;;28.65;6.18;;;;;;;;;;5010974;28;20030;-71
2023/06/02 05:25:04;;;;;;;17.10;4.78;;;;;;;;;;5007189;28;20026;-72
2023/06/02 05:27:30;;;;;;;30.83;5.80;;;;;;;;;;5015527;28;20030;-71
2023/06/02 05:29:56;;;;;;;29.40;5.90;;;;;;;;;;5007872;28;20365;-72
2023/06/02 05:32:24;;;;;;;31.48;6.20;;;;;;;;;;5010259;28;20034;-70
2023/06/02 05:34:50;;;;;;;26.23;5.78;;;;;;;;;;5014953;28;20109;-70
2023/06/02 05:37:16;;;;;;;24.60;5.57;;;;;;;;;;5014856;28;20028;-72
2023/06/02 05:39:43;;;;;;;25.13;4.80;;;;;;;;;;5006415;28;20057;-72
2023/06/02 05:42:09;;;;;;;21.05;6.60;;;;;;;;;;5006030;28;20518;-71
2023/06/02 05:44:35;;;;;;;28.17;6.20;;;;;;;;;;5006585;28;20038;-71
2023/06/02 05:47:01;;;;;;;24.58;6.03;;;;;;;;;;5014841;28;20546;-71
2023/06/02 05:49:27;;;;;;;32.00;5.55;;;;;;;;;;5006399;28;20496;-72
2023/06/02 05:51:53;;;;;;;28.02;5.97;;;;;;;;;;5013531;28;20029;-71
2023/06/02 05:54:19;;;;;;;28.67;5.80;;;;;;;;;;5014890;28;20444;-72
2023/06/02 05:56:45;;;;;;;25.45;5.93;;;;;;;;;;5004032;28;20040;-76
2023/06/02 05:59:11;;;;;;;26.35;6.07;;;;;;;;;;5008923;28;20468;-71
2023/06/02 06:01:37;;;;;;;25.80;5.85;;;;;;;;;;5013221;28;20112;-71
2023/06/02 06:04:03;;;;;;;28.90;5.63;;;;;;;;;;5005254;28;20109;-70
2023/06/02 06:06:30;;;;;;;29.67;5.97;;;;;;;;;;5006174;28;20114;-72
2023/06/02 06:08:56;;;;;;;30.15;6.78;;;;;;;;;;5016279;28;20025;-71
2023/06/02 06:11:22;;;;;;;28.90;7.10;;;;;;;;;;5014913;28;20034;-72
2023/06/02 06:13:48;;;;;;;23.50;6.43;;;;;;;;;;5014233;28;20387;-72
2023/06/02 06:16:14;;;;;;;26.23;5.68;;;;;;;;;;5014708;28;20041;-72
2023/06/02 06:18:40;;;;;;;29.13;6.60;;;;;;;;;;5014428;28;20049;-71
2023/06/02 06:21:06;;;;;;;29.23;6.30;;;;;;;;;;5013798;28;20022;-72
2023/06/02 06:23:32;;;;;;;23.73;6.22;;;;;;;;;;5013763;28;20038;-71
2023/06/02 06:25:58;;;;;;;27.73;5.85;;;;;;;;;;5014200;28;20034;-71
2023/06/02 06:28:24;;;;;;;31.70;6.05;;;;;;;;;;5014131;28;20041;-73
2023/06/02 06:30:50;;;;;;;28.30;5.63;;;;;;;;;;5014205;28;20026;-71
2023/06/02 06:33:16;;;;;;;29.45;6.05;;;;;;;;;;5015280;28;20022;-72
2023/06/02 06:35:42;;;;;;;30.52;6.13;;;;;;;;;;5017021;28;20430;-73
2023/06/02 06:38:08;;;;;;;24.05;6.05;;;;;;;;;;5013736;28;20054;-72
2023/06/02 06:40:34;;;;;;;30.02;6.40;;;;;;;;;;5014037;28;20390;-71
2023/06/02 06:43:00;;;;;;;18.13;5.65;;;;;;;;;;5015076;28;20025;-72
2023/06/02 06:45:26;;;;;;;26.23;6.00;;;;;;;;;;5013633;28;20040;-72
2023/06/02 06:47:52;;;;;;;25.77;5.50;;;;;;;;;;5012850;28;20029;-71
2023/06/02 06:50:18;;;;;;;34.10;6.97;;;;;;;;;;5013404;28;20419;-72
2023/06/02 06:52:46;;;;;;;25.92;5.90;;;;;;;;;;5012166;28;20022;-71
2023/06/02 06:55:12;;;;;;;24.77;5.70;;;;;;;;;;5012537;28;20037;-72
2023/06/02 06:57:38;;;;;;;24.13;5.47;;;;;;;;;;5012117;28;20022;-72
2023/06/02 07:00:05;;;;;;;23.35;5.80;;;;;;;;;;5012410;28;20057;-72
2023/06/02 07:02:32;;;;;;;16.83;4.78;;;;;;;;;;5010863;28;20026;-72
2023/06/02 07:04:58;;;;;;;25.13;5.72;;;;;;;;;;5012015;28;20018;-72
2023/06/02 07:07:24;;;;;;;23.90;5.60;;;;;;;;;;5011841;28;20109;-72
2023/06/02 07:09:50;;;;;;;22.48;5.97;;;;;;;;;;5011536;28;20085;-73
2023/06/02 07:12:16;;;;;;;20.95;5.60;;;;;;;;;;5011195;28;20088;-71
2023/06/02 07:14:42;;;;;;;23.17;5.80;;;;;;;;;;5012045;28;20022;-72
2023/06/02 07:17:08;;;;;;;22.02;5.60;;;;;;;;;;5011926;28;20109;-71
2023/06/02 07:19:34;;;;;;;24.08;5.38;;;;;;;;;;5011813;28;20065;-72
2023/06/02 07:22:00;;;;;;;16.25;4.78;;;;;;;;;;5011752;28;20076;-71
2023/06/02 07:24:26;;;;;;;15.55;4.78;;;;;;;;;;5011796;28;20038;-72
2023/06/02 07:26:53;;;;;;;23.40;5.28;;;;;;;;;;5011484;28;20477;-70
2023/06/02 07:29:19;;;;;;;17.85;5.25;;;;;;;;;;5011253;28;20442;-71
2023/06/02 07:31:45;;;;;;;22.13;4.95;;;;;;;;;;5011799;28;20022;-72
2023/06/02 07:34:11;;;;;;;14.90;4.38;;;;;;;;;;5012077;28;20022;-72
2023/06/02 07:36:38;;;;;;;16.88;4.38;;;;;;;;;;5011956;28;20029;-70
2023/06/02 07:39:04;;;;;;;19.45;5.20;;;;;;;;;;5012167;28;20036;-70
2023/06/02 07:41:30;;;;;;;12.45;4.03;;;;;;;;;;5011381;28;20026;-69
2023/06/02 07:43:58;;;;;;;14.43;3.78;;;;;;;;;;5011087;28;20475;-71
2023/06/02 07:46:24;;;;;;;13.25;3.72;;;;;;;;;;5010238;28;20030;-71
2023/06/02 07:48:50;;;;;;;15.07;3.65;;;;;;;;;;5011831;28;20057;-75
2023/06/02 07:51:16;;;;;;;16.27;4.68;;;;;;;;;;5012537;28;20483;-72
2023/06/02 07:53:42;;;;;;;20.30;5.85;;;;;;;;;;5012602;28;20033;-72
2023/06/02 07:56:08;;;;;;;21.13;6.03;;;;;;;;;;5013722;28;20034;-72
2023/06/02 07:58:34;;;;;;;20.73;6.35;;;;;;;;;;5014356;28;20034;-72
2023/06/02 08:01:00;;;;;;;22.95;5.50;;;;;;;;;;5015040;28;20562;-72
2023/06/02 08:03:26;;;;;;;24.05;5.80;;;;;;;;;;5014227;28;20053;-72
2023/06/02 08:05:52;;;;;;;21.63;6.53;;;;;;;;;;5014101;28;20053;-74
2023/06/02 08:08:18;;;;;;;26.92;6.53;;;;;;;;;;5017016;28;20488;-74
2023/06/02 08:10:44;;;;;;;21.10;6.60;;;;;;;;;;5015795;28;20049;-72
2023/06/02 08:13:11;;;;;;;23.63;6.28;;;;;;;;;;5016079;28;20096;-72
2023/06/02 08:15:37;;;;;;;21.17;6.47;;;;;;;;;;5015282;28;20022;-73
2023/06/02 08:18:03;;;;;;;22.67;7.05;;;;;;;;;;5014941;28;20033;-72
2023/06/02 08:20:29;;;;;;;18.30;5.78;;;;;;;;;;5014233;28;20041;-73
2023/06/02 08:22:56;;;;;;;26.13;6.55;;;;;;;;;;5012925;28;20489;-73
2023/06/02 08:25:22;;;;;;;20.50;7.20;;;;;;;;;;5013547;28;20036;-72
2023/06/02 08:27:48;;;;;;;29.13;5.63;;;;;;;;;;5012055;28;20072;-72
2023/06/02 08:30:14;;;;;;;19.10;4.88;;;;;;;;;;5011659;28;20117;-71
2023/06/02 08:32:40;;;;;;;16.40;3.83;;;;;;;;;;5011407;28;20026;-70
2023/06/02 08:35:07;;;;;;;22.08;4.55;;;;;;;;;;5011667;28;20100;-72
2023/06/02 08:37:33;;;;;;;15.38;4.20;;;;;;;;;;5012816;28;20132;-73
2023/06/02 08:39:59;;;;;;;20.40;4.90;;;;;;;;;;5013478;28;20036;-73
2023/06/02 08:42:28;;;;;;;14.75;4.00;;;;;;;;;;5013416;28;20033;-72
2023/06/02 08:44:54;;;;;;;19.30;4.40;;;;;;;;;;5014161;28;20030;-72
2023/06/02 08:47:24;;;;;;;15.57;3.58;;;;;;;;;;5014019;28;20033;-75
2023/06/02 08:49:51;;;;;;;11.07;3.47;;;;;;;;;;5013486;28;20032;-73
2023/06/02 08:52:21;;;;;;;11.65;3.17;;;;;;;;;;5013233;28;20037;-71
2023/06/02 08:54:47;;;;;;;10.15;3.05;;;;;;;;;;5012697;28;20029;-71
2023/06/02 08:57:16;;;;;;;15.38;2.90;;;;;;;;;;5012204;28;20030;-71
2023/06/02 08:59:42;;;;;;;7.55;2.92;;;;;;;;;;5014437;28;20114;-74
2023/06/02 09:02:08;;;;;;;13.50;3.17;;;;;;;;;;5012674;28;20076;-73
2023/06/02 09:04:34;;;;;;;11.52;4.03;;;;;;;;;;5012367;28;20030;-73
2023/06/02 09:07:12;;;;;;;14.13;4.55;;;;;;;;;;5012589;28;20029;-76
2023/06/02 09:09:41;;;;;;;9.52;3.42;;;;;;;;;;5011753;28;20131;-75
2023/06/02 09:12:08;;;;;;;10.18;2.80;;;;;;;;;;5012274;28;20111;-77
2023/06/02 09:14:34;;;;;;;11.48;3.25;;;;;;;;;;5012122;28;20466;-75
2023/06/02 09:17:00;;;;;;;11.20;2.92;;;;;;;;;;5011825;28;20033;-76
2023/06/02 09:19:26;;;;;;;11.73;3.05;;;;;;;;;;5012085;28;20026;-75
2023/06/02 09:22:04;;;;;;;8.60;3.15;;;;;;;;;;5011829;28;20069;-75
2023/06/02 09:24:32;;;;;;;7.85;2.50;;;;;;;;;;5011877;28;20542;-76
2023/06/02 09:26:58;;;;;;;8.75;2.58;;;;;;;;;;5011868;28;20026;-75
2023/06/02 09:29:24;;;;;;;17.58;2.70;;;;;;;;;;5012182;28;20030;-76
2023/06/02 09:31:52;;;;;;;13.13;3.20;;;;;;;;;;5012145;28;20101;-80
2023/06/02 09:34:18;;;;;;;9.05;2.90;;;;;;;;;;5012859;28;20021;-73
2023/06/02 09:36:46;;;;;;;11.07;2.67;;;;;;;;;;5015572;28;20035;-72
2023/06/02 09:39:12;;;;;;;14.27;2.80;;;;;;;;;;5015102;28;20064;-75
2023/06/02 09:41:39;;;;;;;10.07;2.58;;;;;;;;;;5015176;28;20058;-72
2023/06/02 09:44:15;;;;;;;12.43;2.88;;;;;;;;;;5014725;28;20049;-70
2023/06/02 09:46:43;;;;;;;7.78;2.30;;;;;;;;;;5014870;28;20064;-71
2023/06/02 09:49:10;;;;;;;10.07;2.40;;;;;;;;;;5014846;28;20026;-75
2023/06/02 09:51:37;;;;;;;13.88;4.55;;;;;;;;;;5015104;28;20033;-72
2023/06/02 09:54:04;;;;;;;11.68;3.92;;;;;;;;;;5014903;28;20014;-71
2023/06/02 09:56:34;;;;;;;42.00;21.20;;;;;;;;;;5014892;28;20026;-71
2023/06/02 09:59:00;;;;;;;8.60;3.80;;;;;;;;;;5014977;28;20046;-72
2023/06/02 10:01:26;;;;;;;10.35;2.58;;;;;;;;;;5014621;28;20041;-72
2023/06/02 10:03:52;;;;;;;6.82;3.10;;;;;;;;;;5014612;28;20058;-72
2023/06/02 10:06:24;;;;;;;5.07;2.22;;;;;;;;;;5014681;28;20033;-72
2023/06/02 10:09:00;;;;;;;8.75;3.22;;;;;;;;;;5014315;28;20026;-72
2023/06/02 10:11:32;;;;;;;5.38;2.10;;;;;;;;;;5015139;28;20487;-73
2023/06/02 10:14:27;;;;;;;4.88;1.75;;;;;;;;;;5014499;28;20029;-74
2023/06/02 10:17:17;;;;;;;8.70;2.10;;;;;;;;;;5014477;28;20479;-75
2023/06/02 10:19:54;;;;;;;4.43;1.95;;;;;;;;;;5010127;28;20026;-71
2023/06/02 10:22:39;;;;;;;6.80;2.35;;;;;;;;;;5010207;28;20022;-72
2023/06/02 10:25:16;;;;;;;11.27;3.25;;;;;;;;;;5010828;28;20034;-73
2023/06/02 10:27:48;;;;;;;22.95;4.05;;;;;;;;;;5012891;28;20030;-73
2023/06/02 10:30:18;;;;;;;10.35;2.47;;;;;;;;;;5008854;28;20471;-74
2023/06/02 10:32:46;;;;;;;8.38;2.35;;;;;;;;;;5009859;28;20483;-74
2023/06/02 10:35:13;;;;;;;10.32;2.85;;;;;;;;;;5012740;28;20132;-73
2023/06/02 10:37:39;;;;;;;9.98;3.40;;;;;;;;;;5012709;28;20040;-72
2023/06/02 10:40:08;;;;;;;16.92;4.00;;;;;;;;;;5010562;28;20088;-72
2023/06/02 10:42:34;;;;;;;16.58;5.60;;;;;;;;;;5012549;28;20533;-71
2023/06/02 10:45:32;;;;;;;15.23;3.95;;;;;;;;;;5012018;28;20112;-73
2023/06/02 10:47:58;;;;;;;10.52;2.50;;;;;;;;;;4965859;28;20053;-71
2023/06/02 10:50:24;;;;;;;9.25;2.97;;;;;;;;;;5010579;28;20030;-72
2023/06/02 10:53:00;;;;;;;13.23;3.20;;;;;;;;;;5011356;28;20029;-73
2023/06/02 10:55:27;;;;;;;6.95;2.80;;;;;;;;;;5012470;28;20025;-72
2023/06/02 10:57:56;;;;;;;11.30;3.13;;;;;;;;;;5005004;28;20041;-72
2023/06/02 11:00:39;;;;;;;8.80;3.00;;;;;;;;;;5011997;28;20022;-72
2023/06/02 11:03:11;;;;;;;10.38;3.25;;;;;;;;;;5012182;28;20113;-72
2023/06/02 11:05:37;;;;;;;13.18;3.38;;;;;;;;;;5012344;28;20052;-71
2023/06/02 11:08:18;;;;;;;16.13;3.30;;;;;;;;;;5010444;28;20045;-73
2023/06/02 11:10:48;;;;;;;15.23;3.05;;;;;;;;;;5009312;28;20540;-71
2023/06/02 11:13:14;;;;;;;11.23;2.30;;;;;;;;;;5011976;28;20098;-73
2023/06/02 11:15:42;;;;;;;11.15;2.30;;;;;;;;;;5015357;28;20026;-74
2023/06/02 11:18:32;;;;;;;8.95;2.30;;;;;;;;;;5015021;28;20024;-74
2023/06/02 11:21:02;;;;;;;9.02;2.47;;;;;;;;;;5012896;28;20022;-73
2023/06/02 11:23:28;;;;;;;11.88;2.60;;;;;;;;;;5012099;28;20115;-71
2023/06/02 11:26:01;;;;;;;11.65;2.60;;;;;;;;;;5011333;28;20080;-71
2023/06/02 11:28:27;;;;;;;15.95;4.05;;;;;;;;;;5010773;28;20018;-74
2023/06/02 11:31:13;;;;;;;12.57;2.60;;;;;;;;;;5011798;28;20579;-71
2023/06/02 11:33:41;;;;;;;7.03;2.38;;;;;;;;;;5010257;28;20388;-73
2023/06/02 11:36:12;;;;;;;8.35;2.70;;;;;;;;;;5011932;28;20025;-72
2023/06/02 11:38:38;;;;;;;13.18;2.60;;;;;;;;;;5012697;28;20034;-72
2023/06/02 11:41:15;;;;;;;14.60;2.97;;;;;;;;;;5012131;28;20029;-71
2023/06/02 11:43:42;;;;;;;7.18;2.20;;;;;;;;;;5009678;28;20030;-72
2023/06/02 11:46:08;;;;;;;9.65;2.95;;;;;;;;;;5011897;28;20415;-74
2023/06/02 11:48:38;;;;;;;18.75;3.03;;;;;;;;;;5011400;28;20014;-71
2023/06/02 11:51:08;;;;;;;12.65;4.03;;;;;;;;;;5011192;28;20026;-73
2023/06/02 11:53:35;;;;;;;10.75;2.15;;;;;;;;;;5010971;28;20053;-72
2023/06/02 11:56:01;;;;;;;15.88;2.95;;;;;;;;;;5011512;28;20105;-72
2023/06/02 11:58:28;;;;;;;11.90;2.72;;;;;;;;;;5011130;28;20105;-72
2023/06/02 12:01:14;;;;;;;8.80;2.40;;;;;;;;;;5011506;28;20026;-73
2023/06/02 12:03:52;;;;;;;8.45;2.60;;;;;;;;;;5006224;28;20117;-73
2023/06/02 12:06:18;;;;;;;6.82;1.90;;;;;;;;;;5012323;28;20087;-72
2023/06/02 12:08:46;;;;;;;14.10;2.83;;;;;;;;;;5011694;28;20026;-73
2023/06/02 12:11:18;;;;;;;11.25;2.30;;;;;;;;;;5011672;28;20028;-72
2023/06/02 12:14:04;;;;;;;5.05;2.05;;;;;;;;;;5010929;28;20030;-72
2023/06/02 12:16:31;;;;;;;7.07;2.22;;;;;;;;;;5011543;28;20026;-72
2023/06/02 12:19:12;;;;;;;7.25;1.90;;;;;;;;;;5011279;28;20029;-72
2023/06/02 12:21:41;;;;;;;7.00;2.33;;;;;;;;;;5011942;28;20036;-71
2023/06/02 12:24:07;;;;;;;10.20;2.13;;;;;;;;;;5011588;28;20014;-71
2023/06/02 12:26:40;;;;;;;8.85;1.77;;;;;;;;;;5011607;28;20022;-71
2023/06/02 12:29:07;;;;;;;10.23;1.75;;;;;;;;;;5011128;28;20060;-72
2023/06/02 12:31:33;;;;;;;5.45;1.67;;;;;;;;;;5011812;28;20108;-73
2023/06/02 12:33:59;;;;;;;9.27;1.85;;;;;;;;;;5011206;28;20090;-73
2023/06/02 12:36:25;;;;;;;7.85;1.52;;;;;;;;;;5011265;28;20026;-73
2023/06/02 12:38:51;;;;;;;5.47;1.95;;;;;;;;;;5011267;28;20100;-76
2023/06/02 12:41:17;;;;;;;8.85;1.90;;;;;;;;;;5011311;28;20069;-75
2023/06/02 12:43:43;;;;;;;5.65;2.45;;;;;;;;;;5013183;28;20105;-78
2023/06/02 12:46:13;;;;;;;5.13;1.63;;;;;;;;;;5012063;28;20018;-76
2023/06/02 12:48:39;;;;;;;9.43;1.85;;;;;;;;;;5011051;28;20106;-78
2023/06/02 12:51:08;;;;;;;5.63;1.50;;;;;;;;;;5013311;28;20046;-75
2023/06/02 12:53:35;;;;;;;4.65;1.60;;;;;;;;;;5008947;28;20061;-76
2023/06/02 12:56:01;;;;;;;6.00;2.13;;;;;;;;;;5009608;28;20026;-74
2023/06/02 12:58:27;;;;;;;6.25;1.63;;;;;;;;;;5010993;28;20026;-75
2023/06/02 13:00:53;;;;;;;9.13;3.13;;;;;;;;;;5010813;28;20340;-74
2023/06/02 13:03:19;;;;;;;5.78;1.45;;;;;;;;;;5011066;28;20030;-74
2023/06/02 13:06:05;;;;;;;5.10;1.55;;;;;;;;;;5011034;28;20092;-74
2023/06/02 13:08:31;;;;;;;6.30;1.58;;;;;;;;;;5010928;28;20026;-78
2023/06/02 13:10:57;;;;;;;6.35;1.50;;;;;;;;;;5012731;28;20044;-73
2023/06/02 13:13:24;;;;;;;8.20;1.75;;;;;;;;;;5009507;28;20045;-71
2023/06/02 13:15:50;;;;;;;5.18;1.38;;;;;;;;;;5013483;28;20032;-73
2023/06/02 13:18:16;;;;;;;5.97;1.40;;;;;;;;;;5013826;28;20040;-75
2023/06/02 13:20:43;;;;;;;5.03;1.38;;;;;;;;;;5010219;28;20084;-70
2023/06/02 13:23:10;;;;;;;6.38;1.38;;;;;;;;;;5013020;28;20129;-70
2023/06/02 13:25:36;;;;;;;9.70;1.63;;;;;;;;;;5013469;28;20049;-72
2023/06/02 13:28:02;;;;;;;7.55;1.80;;;;;;;;;;5013239;28;20188;-73
2023/06/02 13:30:28;;;;;;;8.65;1.40;;;;;;;;;;5011941;28;20585;-72
2023/06/02 13:32:54;;;;;;;8.30;1.50;;;;;;;;;;5012305;28;20022;-71
2023/06/02 13:35:20;;;;;;;8.55;1.77;;;;;;;;;;5012952;28;20125;-72
2023/06/02 13:37:46;;;;;;;6.80;1.45;;;;;;;;;;5013952;28;20073;-72
2023/06/02 13:40:15;;;;;;;5.07;1.40;;;;;;;;;;5009720;28;20063;-71
2023/06/02 13:42:41;;;;;;;17.58;5.53;;;;;;;;;;5012129;28;20436;-71
2023/06/02 13:45:07;;;;;;;6.13;1.45;;;;;;;;;;5013032;28;20058;-72
2023/06/02 13:47:33;;;;;;;5.15;1.52;;;;;;;;;;5012149;28;20400;-71
2023/06/02 13:49:59;;;;;;;8.23;1.95;;;;;;;;;;5012752;28;20018;-71
2023/06/02 13:52:26;;;;;;;7.45;1.65;;;;;;;;;;5012062;28;20026;-71
2023/06/02 13:54:54;;;;;;;7.15;1.30;;;;;;;;;;5012556;28;20030;-71
2023/06/02 13:57:20;;;;;;;9.13;1.60;;;;;;;;;;5010456;28;20034;-70
2023/06/02 13:59:46;;;;;;;5.10;1.33;;;;;;;;;;5012666;28;20057;-71
2023/06/02 14:02:12;;;;;;;6.20;1.80;;;;;;;;;;5012736;28;20514;-72
2023/06/02 14:04:39;;;;;;;5.57;1.45;;;;;;;;;;5013104;28;20026;-72
2023/06/02 14:07:06;;;;;;;4.63;1.40;;;;;;;;;;5013343;28;20069;-71
2023/06/02 14:09:32;;;;;;;9.40;1.38;;;;;;;;;;5013369;28;20506;-71
2023/06/02 14:11:58;;;;;;;8.32;3.83;;;;;;;;;;5013286;28;20018;-73
2023/06/02 14:14:24;;;;;;;7.15;2.28;;;;;;;;;;5013825;28;20033;-73
2023/06/02 14:16:50;;;;;;;6.32;2.35;;;;;;;;;;5014031;28;20022;-73
2023/06/02 14:19:16;;;;;;;8.55;1.38;;;;;;;;;;5014173;28;20022;-70
2023/06/02 14:21:42;;;;;;;3.88;1.20;;;;;;;;;;5013082;28;20022;-70
2023/06/02 14:24:08;;;;;;;5.07;2.00;;;;;;;;;;5014126;28;20037;-76
2023/06/02 14:26:34;;;;;;;10.75;3.72;;;;;;;;;;5014354;28;20030;-75
2023/06/02 14:29:00;;;;;;;5.50;1.70;;;;;;;;;;5015760;28;20018;-78
2023/06/02 14:31:26;;;;;;;5.20;1.52;;;;;;;;;;5018622;28;20079;-79
2023/06/02 14:33:52;;;;;;;8.82;1.67;;;;;;;;;;5018141;28;20018;-73
2023/06/02 14:36:18;;;;;;;9.05;1.63;;;;;;;;;;5016980;28;20057;-76